createdAt,value
2023-01-03T00:02:10.777Z,95960.28
2023-01-03T00:04:37.494Z,95958.56
2023-01-03T00:07:04.228Z,95952.00
2023-01-03T00:09:30.889Z,95963.25
2023-01-03T00:12:15.871Z,95957.00
2023-01-03T00:14:43.513Z,95949.94
2023-01-03T00:17:11.054Z,95969.94
2023-01-03T00:19:40.618Z,95977.91
2023-01-03T00:22:07.214Z,95979.44
2023-01-03T00:24:33.818Z,95988.50
2023-01-03T00:27:00.316Z,95987.41
2023-01-03T00:29:26.947Z,95988.94
2023-01-03T00:31:54.176Z,95991.59
2023-01-03T00:34:20.704Z,95993.63
2023-01-03T00:36:47.198Z,95992.56
2023-01-03T00:39:13.932Z,96000.97
2023-01-03T00:41:40.539Z,96016.09
2023-01-03T00:44:07.287Z,96026.38
2023-01-03T00:46:34.164Z,96024.34
2023-01-03T00:49:01.209Z,96024.34
2023-01-03T00:51:30.073Z,96029.91
2023-01-03T00:53:57.644Z,96029.91
2023-01-03T00:56:27.014Z,96036.59
2023-01-03T00:58:53.879Z,96027.25
2023-01-03T01:01:22.774Z,96031.91
2023-01-03T01:03:52.555Z,96042.19
2023-01-03T01:06:20.976Z,96036.50
2023-01-03T01:08:48.497Z,96036.50
2023-01-03T01:11:15.415Z,96055.94
2023-01-03T01:13:42.549Z,96054.53
2023-01-03T01:16:13.510Z,96053.56
2023-01-03T01:18:44.245Z,96065.19
2023-01-03T01:21:12.942Z,96070.81
2023-01-03T01:23:40.176Z,96081.13
2023-01-03T01:26:07.317Z,96086.28
2023-01-03T01:28:34.098Z,96097.28
2023-01-03T01:31:04.408Z,96100.25
2023-01-03T01:33:32.265Z,96116.28
2023-01-03T01:35:59.175Z,96112.00
2023-01-03T01:38:25.666Z,96112.53
2023-01-03T01:40:52.114Z,96136.97
2023-01-03T01:43:40.606Z,96157.03
2023-01-03T01:46:33.520Z,96169.81
2023-01-03T01:49:02.760Z,96180.91
2023-01-03T01:51:30.865Z,96185.72
2023-01-03T01:54:00.529Z,96196.31
2023-01-03T01:56:30.111Z,96193.97
2023-01-03T01:58:57.124Z,96201.63
2023-01-03T02:01:24.490Z,96204.56
2023-01-03T02:03:55.521Z,96215.00
2023-01-03T02:06:22.947Z,96231.31
2023-01-03T02:08:49.666Z,96243.91
2023-01-03T02:11:34.776Z,96250.88
2023-01-03T02:14:13.569Z,96266.91
2023-01-03T02:16:50.753Z,96278.66
2023-01-03T02:19:23.474Z,96302.72
2023-01-03T02:21:49.995Z,96327.84
2023-01-03T02:24:32.760Z,96324.97
2023-01-03T02:27:20.144Z,96348.13
2023-01-03T02:29:56.860Z,96366.00
2023-01-03T02:32:33.689Z,96377.44
2023-01-03T02:35:00.209Z,96397.34
2023-01-03T02:37:46.628Z,96405.09
2023-01-03T02:40:14.956Z,96427.34
2023-01-03T02:43:07.739Z,96433.44
2023-01-03T02:45:37.055Z,96445.19
2023-01-03T02:48:29.976Z,96458.72
2023-01-03T02:50:58.146Z,96483.19
2023-01-03T02:53:30.800Z,96489.06
2023-01-03T02:56:00.620Z,96502.94
2023-01-03T02:58:29.955Z,96524.47
2023-01-03T03:01:01.936Z,96532.31
2023-01-03T03:03:38.453Z,96540.06
2023-01-03T03:06:04.938Z,96545.91
2023-01-03T03:08:31.454Z,96552.56
2023-01-03T03:11:16.566Z,96564.78
2023-01-03T03:13:51.300Z,96585.22
2023-01-03T03:16:40.996Z,96591.88
2023-01-03T03:19:54.295Z,96621.53
2023-01-03T03:22:59.459Z,96633.72
2023-01-03T03:25:30.598Z,96643.59
2023-01-03T03:28:19.982Z,96658.66
2023-01-03T03:30:49.174Z,96673.53
2023-01-03T03:33:17.905Z,96681.50
2023-01-03T03:36:06.704Z,96675.97
2023-01-03T03:38:41.097Z,96686.56
2023-01-03T03:41:35.491Z,96690.03
2023-01-03T03:44:40.622Z,96707.00
2023-01-03T03:47:12.360Z,96706.22
2023-01-03T03:49:40.657Z,96715.44
2023-01-03T03:52:09.658Z,96722.59
2023-01-03T03:54:37.880Z,96725.78
2023-01-03T03:57:08.167Z,96733.53
2023-01-03T03:59:35.282Z,96735.09
2023-01-03T04:02:03.845Z,96744.03
2023-01-03T04:04:33.079Z,96753.88
2023-01-03T04:06:59.823Z,96759.97
2023-01-03T04:09:26.346Z,96767.66
2023-01-03T04:11:52.856Z,96776.38
2023-01-03T04:14:19.333Z,96777.72
2023-01-03T04:16:45.849Z,96782.22
2023-01-03T04:19:12.539Z,96787.00
2023-01-03T04:21:38.995Z,96789.13
2023-01-03T04:24:05.797Z,96803.34
2023-01-03T04:26:32.261Z,96801.78
2023-01-03T04:29:00.713Z,96810.28
2023-01-03T04:31:28.203Z,96830.13
2023-01-03T04:33:55.478Z,96837.78
2023-01-03T04:36:21.964Z,96848.91
2023-01-03T04:38:48.484Z,96856.84
2023-01-03T04:41:17.056Z,96853.41
2023-01-03T04:44:03.823Z,96856.84
2023-01-03T04:46:30.317Z,96864.50
2023-01-03T04:48:57.138Z,96862.13
2023-01-03T04:51:23.631Z,96874.28
2023-01-03T04:53:50.635Z,96875.34
2023-01-03T04:56:17.258Z,96885.63
2023-01-03T04:58:46.196Z,96906.50
2023-01-03T05:01:12.752Z,96917.59
2023-01-03T05:03:39.309Z,96930.25
2023-01-03T05:06:09.193Z,96944.53
2023-01-03T05:08:35.725Z,96964.63
2023-01-03T05:11:04.900Z,96999.53
2023-01-03T05:13:32.287Z,97022.75
2023-01-03T05:16:03.778Z,97028.03
2023-01-03T05:18:30.765Z,97039.66
2023-01-03T05:21:16.016Z,97047.84
2023-01-03T05:24:00.932Z,97058.94
2023-01-03T05:26:27.424Z,97044.16
2023-01-03T05:28:54.647Z,96999.50
2023-01-03T05:31:22.106Z,96970.97
2023-01-03T05:33:48.711Z,96946.13
2023-01-03T05:36:16.626Z,96944.56
2023-01-03T05:38:43.319Z,96925.53
2023-01-03T05:41:10.175Z,96920.25
2023-01-03T05:43:36.678Z,96926.28
2023-01-03T05:46:03.225Z,96946.59
2023-01-03T05:48:29.812Z,96958.72
2023-01-03T05:50:57.482Z,96955.00
2023-01-03T05:53:24.337Z,96909.66
2023-01-03T05:55:50.906Z,96902.78
2023-01-03T05:58:19.361Z,96892.22
2023-01-03T06:00:45.863Z,96889.84
2023-01-03T06:03:15.015Z,96874.28
2023-01-03T06:05:49.894Z,96876.94
2023-01-03T06:08:16.970Z,96854.75
2023-01-03T06:10:43.457Z,96849.50
2023-01-03T06:13:10.090Z,96849.50
2023-01-03T06:15:36.524Z,96849.22
2023-01-03T06:18:03.008Z,96838.41
2023-01-03T06:20:31.809Z,96840.50
2023-01-03T06:22:58.578Z,96850.25
2023-01-03T06:25:25.535Z,96836.28
2023-01-03T06:27:54.513Z,96827.56
2023-01-03T06:30:21.597Z,96817.28
2023-01-03T06:32:50.810Z,96814.38
2023-01-03T06:35:17.277Z,96815.44
2023-01-03T06:37:43.806Z,96808.81
2023-01-03T06:40:10.533Z,96818.88
2023-01-03T06:42:39.718Z,96813.59
2023-01-03T06:45:25.321Z,96821.25
2023-01-03T06:48:10.441Z,96831.53
2023-01-03T06:50:57.467Z,96840.00
2023-01-03T06:53:24.192Z,96846.31
2023-01-03T06:55:56.673Z,96862.97
2023-01-03T06:58:24.054Z,96878.53
2023-01-03T07:00:50.794Z,96887.00
2023-01-03T07:03:17.261Z,96897.53
2023-01-03T07:05:43.788Z,96897.00
2023-01-03T07:08:10.288Z,96891.19
2023-01-03T07:10:38.791Z,96874.03
2023-01-03T07:13:23.796Z,96866.09
2023-01-03T07:15:50.717Z,96867.09
2023-01-03T07:18:17.193Z,96866.84
2023-01-03T07:20:44.388Z,96862.88
2023-01-03T07:23:11.385Z,96867.31
2023-01-03T07:25:41.952Z,96866.78
2023-01-03T07:28:11.158Z,96882.59
2023-01-03T07:30:42.892Z,96894.22
2023-01-03T07:33:10.908Z,96913.31
2023-01-03T07:35:37.791Z,96926.78
2023-01-03T07:38:05.491Z,96938.69
2023-01-03T07:40:32.557Z,96966.75
2023-01-03T07:43:17.847Z,96984.19
2023-01-03T07:45:45.009Z,97000.31
2023-01-03T07:48:11.690Z,97014.31
2023-01-03T07:50:38.748Z,97027.25
2023-01-03T07:53:06.055Z,97033.84
2023-01-03T07:55:35.321Z,97037.56
2023-01-03T07:58:02.210Z,97031.75
2023-01-03T08:00:28.763Z,97042.31
2023-01-03T08:02:55.944Z,97046.53
2023-01-03T08:05:23.103Z,97044.16
2023-01-03T08:07:49.951Z,97060.25
2023-01-03T08:10:37.823Z,97063.94
2023-01-03T08:13:19.350Z,97077.69
2023-01-03T08:15:49.192Z,97078.47
2023-01-03T08:18:25.733Z,97078.22
2023-01-03T08:20:55.094Z,97081.13
2023-01-03T08:23:22.040Z,97086.66
2023-01-03T08:25:48.586Z,97089.81
2023-01-03T08:28:15.101Z,97083.22
2023-01-03T08:30:50.598Z,97078.47
2023-01-03T08:33:18.579Z,97076.66
2023-01-03T08:35:47.744Z,97072.69
2023-01-03T08:38:20.921Z,97082.69
2023-01-03T08:40:47.957Z,97084.00
2023-01-03T08:43:15.775Z,97084.56
2023-01-03T08:45:44.429Z,97080.84
2023-01-03T08:48:11.573Z,97077.16
2023-01-03T08:50:38.571Z,97069.22
2023-01-03T08:53:06.002Z,97060.78
2023-01-03T08:55:33.405Z,97065.56
2023-01-03T08:58:02.403Z,97067.94
2023-01-03T09:00:30.884Z,97044.44
2023-01-03T09:02:57.910Z,97048.66
2023-01-03T09:05:24.533Z,97045.22
2023-01-03T09:07:51.015Z,97049.72
2023-01-03T09:10:17.524Z,97045.75
2023-01-03T09:12:43.963Z,97049.22
2023-01-03T09:15:12.937Z,97041.25
2023-01-03T09:17:44.251Z,97033.34
2023-01-03T09:20:14.935Z,97046.03
2023-01-03T09:22:41.422Z,97048.13
2023-01-03T09:25:08.202Z,97046.00
2023-01-03T09:27:34.688Z,97044.97
2023-01-03T09:30:01.172Z,97040.44
2023-01-03T09:32:28.397Z,97031.22
2023-01-03T09:34:55.651Z,97009.00
2023-01-03T09:37:24.480Z,96993.16
2023-01-03T09:39:50.942Z,97001.88
2023-01-03T09:42:37.806Z,97003.19
2023-01-03T09:45:05.376Z,96996.31
2023-01-03T09:47:35.213Z,96997.38
2023-01-03T09:53:07.304Z,97077.56
2023-01-03T09:56:02.186Z,97107.59
2023-01-03T09:58:47.374Z,97095.81
2023-01-03T10:01:40.300Z,97081.34
2023-01-03T10:04:25.831Z,97059.47
2023-01-03T10:07:02.742Z,97024.88
2023-01-03T10:09:50.720Z,96996.31
2023-01-03T10:12:28.411Z,96976.75
2023-01-03T10:15:07.441Z,96957.16
2023-01-03T10:17:48.480Z,96943.13
2023-01-03T10:20:37.381Z,96939.44
2023-01-03T10:23:05.547Z,96991.06
2023-01-03T10:25:32.283Z,96983.63
2023-01-03T10:28:06.730Z,96996.31
2023-01-03T10:30:33.183Z,96976.69
2023-01-03T10:33:19.233Z,96969.78
2023-01-03T10:35:45.729Z,96962.59
2023-01-03T10:38:14.887Z,96961.28
2023-01-03T10:40:52.706Z,96935.25
2023-01-03T10:43:25.866Z,96941.06
2023-01-03T10:45:55.847Z,96940.53
2023-01-03T10:48:23.149Z,96944.78
2023-01-03T10:50:50.829Z,96953.28
2023-01-03T10:53:20.408Z,96959.06
2023-01-03T10:55:48.798Z,96952.38
2023-01-03T10:58:29.232Z,96958.69
2023-01-03T11:01:31.456Z,96955.56
2023-01-03T11:04:09.500Z,96959.78
2023-01-03T11:06:36.006Z,96955.22
2023-01-03T11:09:04.290Z,96958.84
2023-01-03T11:11:33.081Z,96955.94
2023-01-03T11:14:06.054Z,96971.03
2023-01-03T11:16:32.839Z,96977.91
2023-01-03T11:19:02.970Z,96977.63
2023-01-03T11:21:33.437Z,96972.50
2023-01-03T11:24:14.925Z,96981.50
2023-01-03T11:26:59.983Z,96996.38
2023-01-03T11:29:26.454Z,96997.97
2023-01-03T11:31:59.331Z,97005.41
2023-01-03T11:35:20.048Z,97001.69
2023-01-03T11:37:33.501Z,96993.13
2023-01-03T11:40:06.022Z,97004.25
2023-01-03T11:42:32.493Z,97016.50
2023-01-03T11:44:59.034Z,97012.78
2023-01-03T11:47:38.545Z,97013.00
2023-01-03T11:50:24.883Z,97004.25
2023-01-03T11:52:57.552Z,97026.00
2023-01-03T11:55:23.976Z,97028.16
2023-01-03T11:58:03.247Z,97040.94
2023-01-03T12:00:29.679Z,97035.63
2023-01-03T12:03:02.439Z,97044.63
2023-01-03T12:05:34.889Z,97063.78
2023-01-03T12:08:08.572Z,97090.06
2023-01-03T12:10:47.420Z,97104.13
2023-01-03T12:13:16.110Z,97085.03
2023-01-03T12:15:48.044Z,97082.59
2023-01-03T12:18:19.865Z,97076.44
2023-01-03T12:20:51.618Z,97075.38
2023-01-03T12:23:27.786Z,97080.16
2023-01-03T12:25:57.312Z,97079.13
2023-01-03T12:28:28.118Z,97072.78
2023-01-03T12:31:05.500Z,97062.69
2023-01-03T12:33:43.149Z,97068.25
2023-01-03T12:36:28.000Z,97070.94
2023-01-03T12:39:12.136Z,97068.28
2023-01-03T12:41:42.237Z,97068.03
2023-01-03T12:44:20.473Z,97071.75
2023-01-03T12:46:52.494Z,97087.72
2023-01-03T12:49:38.553Z,97079.78
2023-01-03T12:52:05.034Z,97070.69
2023-01-03T12:54:37.384Z,97065.38
2023-01-03T12:57:16.302Z,97073.91
2023-01-03T12:59:42.727Z,97078.41
2023-01-03T13:02:17.214Z,97082.38
2023-01-03T13:04:44.563Z,97090.91
2023-01-03T13:07:14.550Z,97095.09
2023-01-03T13:09:44.049Z,97092.94
2023-01-03T13:12:15.652Z,97097.50
2023-01-03T13:15:07.246Z,97116.03
2023-01-03T13:17:46.619Z,97121.06
2023-01-03T13:20:25.364Z,97112.06
2023-01-03T13:22:55.711Z,97113.41
2023-01-03T13:25:28.484Z,97117.41
2023-01-03T13:28:21.390Z,97122.41
2023-01-03T13:30:48.624Z,97125.31
2023-01-03T13:33:20.753Z,97135.13
2023-01-03T13:35:47.178Z,97134.88
2023-01-03T13:38:20.987Z,97145.19
2023-01-03T13:41:17.023Z,97146.50
2023-01-03T13:43:40.372Z,97136.44
2023-01-03T13:46:27.769Z,97136.69
2023-01-03T13:48:58.389Z,97145.97
2023-01-03T13:51:30.901Z,97160.78
2023-01-03T13:54:02.315Z,97165.03
2023-01-03T13:56:54.628Z,97172.19
2023-01-03T13:59:27.190Z,97178.53
2023-01-03T14:01:53.716Z,97190.94
2023-01-03T14:04:32.792Z,97208.94
2023-01-03T14:07:18.193Z,97213.69
2023-01-03T14:09:56.985Z,97222.69
2023-01-03T14:12:26.421Z,97225.88
2023-01-03T14:14:57.257Z,97224.84
2023-01-03T14:17:30.901Z,97235.94
2023-01-03T14:19:59.949Z,97240.19
2023-01-03T14:22:34.945Z,97234.91
2023-01-03T14:25:01.532Z,97226.69
2023-01-03T14:27:33.620Z,97231.19
2023-01-03T14:30:00.428Z,97242.84
2023-01-03T14:32:34.497Z,97260.25
2023-01-03T14:35:01.378Z,97273.69
2023-01-03T14:37:28.176Z,97288.78
2023-01-03T14:39:56.419Z,97281.38
2023-01-03T14:42:23.338Z,97305.59
2023-01-03T14:44:50.976Z,97306.00
2023-01-03T14:47:18.256Z,97299.97
2023-01-03T14:49:49.894Z,97283.13
2023-01-03T14:52:19.399Z,97350.41
2023-01-03T14:54:47.252Z,97399.66
2023-01-03T14:57:21.546Z,97368.44
2023-01-03T14:59:48.717Z,97359.53
2023-01-03T15:02:15.765Z,97331.63
2023-01-03T15:04:43.717Z,97359.81
2023-01-03T15:07:28.659Z,97390.84
2023-01-03T15:10:16.396Z,97390.28
2023-01-03T15:12:45.877Z,97337.63
2023-01-03T15:15:27.550Z,97321.38
2023-01-03T15:17:56.908Z,97321.25
2023-01-03T15:20:30.989Z,97312.03
2023-01-03T15:22:57.561Z,97328.50
2023-01-03T15:25:42.286Z,97348.88
2023-01-03T15:28:29.956Z,97320.34
2023-01-03T15:31:01.271Z,97293.41
2023-01-03T15:33:33.122Z,97265.59
2023-01-03T15:36:11.929Z,97284.00
2023-01-03T15:38:45.070Z,97336.50
2023-01-03T15:41:39.797Z,97393.69
2023-01-03T15:44:07.044Z,97410.31
2023-01-03T15:46:33.652Z,97389.25
2023-01-03T15:49:00.996Z,97362.44
2023-01-03T15:51:27.518Z,97355.00
2023-01-03T15:53:54.002Z,97352.13
2023-01-03T15:56:23.676Z,97330.06
2023-01-03T15:58:51.880Z,97309.75
2023-01-03T16:01:19.566Z,97290.56
2023-01-03T16:03:46.994Z,97271.16
2023-01-03T16:06:13.468Z,97274.91
2023-01-03T16:08:40.342Z,97279.28
2023-01-03T16:11:15.619Z,97313.91
2023-01-03T16:13:49.396Z,97311.97
2023-01-03T16:16:19.393Z,97349.53
2023-01-03T16:18:46.247Z,97340.44
2023-01-03T16:21:13.629Z,97338.88
2023-01-03T16:23:40.223Z,97294.88
2023-01-03T16:26:07.730Z,97274.50
2023-01-03T16:28:35.425Z,97260.56
2023-01-03T16:31:16.532Z,97318.19
2023-01-03T16:33:43.431Z,97314.94
2023-01-03T16:36:22.044Z,97300.16
2023-01-03T16:38:48.522Z,97290.72
2023-01-03T16:41:14.964Z,97285.44
2023-01-03T16:43:41.400Z,97274.25
2023-01-03T16:46:10.744Z,97294.78
2023-01-03T16:48:39.101Z,97355.22
2023-01-03T16:51:06.277Z,97335.59
2023-01-03T16:53:35.572Z,97338.47
2023-01-03T16:56:02.329Z,97357.94
2023-01-03T16:58:29.111Z,97391.25
2023-01-03T17:00:55.769Z,97362.88
2023-01-03T17:03:22.380Z,97385.09
2023-01-03T17:05:50.640Z,97426.31
2023-01-03T17:08:20.226Z,97386.56
2023-01-03T17:10:47.695Z,97386.13
2023-01-03T17:13:34.208Z,97400.19
2023-01-03T17:16:02.055Z,97398.09
2023-01-03T17:18:30.037Z,97386.91
2023-01-03T17:21:00.835Z,97388.19
2023-01-03T17:23:28.240Z,97397.84
2023-01-03T17:25:55.301Z,97399.38
2023-01-03T17:28:22.330Z,97402.09
2023-01-03T17:30:51.570Z,97418.03
2023-01-03T17:33:18.400Z,97423.31
2023-01-03T17:35:45.713Z,97440.06
2023-01-03T17:38:25.895Z,97434.41
2023-01-03T17:40:55.331Z,97436.31
2023-01-03T17:43:25.051Z,97439.91
2023-01-03T17:46:20.627Z,97449.16
2023-01-03T17:49:09.596Z,97463.84
2023-01-03T17:51:38.085Z,97462.31
2023-01-03T17:54:06.596Z,97471.03
2023-01-03T17:56:33.247Z,97467.19
2023-01-03T17:58:59.796Z,97471.97
2023-01-03T18:01:26.348Z,97479.16
2023-01-03T18:03:53.035Z,97497.38
2023-01-03T18:06:21.394Z,97507.72
2023-01-03T18:08:48.551Z,97514.09
2023-01-03T18:11:16.772Z,97523.72
2023-01-03T18:13:43.930Z,97532.41
2023-01-03T18:16:21.045Z,97533.69
2023-01-03T18:18:48.021Z,97550.22
2023-01-03T18:21:18.942Z,97544.41
2023-01-03T18:23:46.054Z,97546.00
2023-01-03T18:26:14.649Z,97558.38
2023-01-03T18:28:41.193Z,97550.75
2023-01-03T18:31:17.534Z,97556.56
2023-01-03T18:33:44.610Z,97548.75
2023-01-03T18:36:22.105Z,97556.91
2023-01-03T18:38:48.665Z,97576.00
2023-01-03T18:41:18.145Z,97582.06
2023-01-03T18:43:44.651Z,97580.31
2023-01-03T18:46:14.115Z,97580.69
2023-01-03T18:48:42.524Z,97592.13
2023-01-03T18:51:13.077Z,97592.94
2023-01-03T18:53:41.350Z,97583.81
2023-01-03T18:56:19.137Z,97564.84
2023-01-03T18:58:45.765Z,97552.94
2023-01-03T19:01:12.360Z,97552.56
2023-01-03T19:03:40.092Z,97571.28
2023-01-03T19:06:13.730Z,97578.94
2023-01-03T19:08:40.268Z,97586.44
2023-01-03T19:11:08.745Z,97583.31
2023-01-03T19:13:50.507Z,97589.44
2023-01-03T19:16:18.231Z,97617.91
2023-01-03T19:18:45.025Z,97619.03
2023-01-03T19:21:15.400Z,97616.53
2023-01-03T19:23:42.587Z,97606.16
2023-01-03T19:26:25.324Z,97595.44
2023-01-03T19:28:56.404Z,97585.19
2023-01-03T19:31:26.554Z,97594.41
2023-01-03T19:33:53.442Z,97610.41
2023-01-03T19:36:20.813Z,97630.50
2023-01-03T19:38:47.430Z,97647.16
2023-01-03T19:41:15.485Z,97660.66
2023-01-03T19:43:43.737Z,97677.69
2023-01-03T19:46:14.831Z,97673.00
2023-01-03T19:48:41.442Z,97660.31
2023-01-03T19:51:09.127Z,97660.75
2023-01-03T19:53:35.871Z,97646.56
2023-01-03T19:56:02.894Z,97652.41
2023-01-03T19:58:31.368Z,97660.75
2023-01-03T20:00:58.814Z,97655.59
2023-01-03T20:03:44.127Z,97670.94
2023-01-03T20:06:15.624Z,97684.56
2023-01-03T20:08:42.153Z,97682.94
2023-01-03T20:11:15.010Z,97678.38
2023-01-03T20:13:41.584Z,97672.88
2023-01-03T20:16:10.230Z,97683.66
2023-01-03T20:18:37.013Z,97693.25
2023-01-03T20:21:10.320Z,97709.50
2023-01-03T20:23:39.699Z,97697.13
2023-01-03T20:26:06.708Z,97722.66
2023-01-03T20:28:33.256Z,97720.47
2023-01-03T20:31:00.965Z,97701.94
2023-01-03T20:33:28.881Z,97698.84
2023-01-03T20:36:22.111Z,97679.47
2023-01-03T20:38:46.702Z,97665.69
2023-01-03T20:41:14.577Z,97654.75
2023-01-03T20:43:41.643Z,97649.91
2023-01-03T20:46:26.566Z,97631.66
2023-01-03T20:48:57.210Z,97630.72
2023-01-03T20:51:26.485Z,97621.78
2023-01-03T20:53:55.553Z,97611.38
2023-01-03T20:56:22.490Z,97606.53
2023-01-03T20:58:49.052Z,97606.06
2023-01-03T21:01:15.645Z,97599.91
2023-01-03T21:03:42.278Z,97610.81
2023-01-03T21:06:19.226Z,97618.41
2023-01-03T21:08:54.968Z,97626.81
2023-01-03T21:11:25.502Z,97629.31
2023-01-03T21:13:52.220Z,97630.34
2023-01-03T21:16:22.515Z,97617.75
2023-01-03T21:18:49.173Z,97615.56
2023-01-03T21:21:18.816Z,97620.75
2023-01-03T21:23:45.347Z,97615.94
2023-01-03T21:26:12.027Z,97616.28
2023-01-03T21:28:38.530Z,97614.63
2023-01-03T21:31:06.029Z,97603.69
2023-01-03T21:33:33.275Z,97601.16
2023-01-03T21:35:59.798Z,97603.41
2023-01-03T21:38:26.317Z,97581.03
2023-01-03T21:40:53.339Z,97579.59
2023-01-03T21:43:19.789Z,97596.78
2023-01-03T21:45:47.542Z,97651.38
2023-01-03T21:48:15.248Z,97726.59
2023-01-03T21:50:45.527Z,97778.22
2023-01-03T21:53:18.453Z,97767.53
2023-01-03T21:55:45.708Z,97735.19
2023-01-03T21:58:13.656Z,97742.81
2023-01-03T22:00:40.457Z,97727.09
2023-01-03T22:03:25.444Z,97705.16
2023-01-03T22:05:52.062Z,97689.00
2023-01-03T22:08:18.536Z,97681.00
2023-01-03T22:10:48.083Z,97659.28
2023-01-03T22:13:14.612Z,97647.16
2023-01-03T22:15:41.199Z,97643.38
2023-01-03T22:18:09.152Z,97665.13
2023-01-03T22:20:38.830Z,97643.53
2023-01-03T22:23:06.819Z,97639.16
2023-01-03T22:25:33.420Z,97649.81
2023-01-03T22:28:02.345Z,97644.56
2023-01-03T22:30:28.885Z,97625.69
2023-01-03T22:32:59.155Z,97616.63
2023-01-03T22:35:25.751Z,97642.41
2023-01-03T22:37:52.202Z,97637.22
2023-01-03T22:40:18.787Z,97689.88
2023-01-03T22:42:46.143Z,97707.44
2023-01-03T22:45:15.423Z,97714.38
2023-01-03T22:47:42.420Z,97673.81
2023-01-03T22:50:09.418Z,97645.25
2023-01-03T22:52:39.283Z,97657.72
2023-01-03T22:55:08.297Z,97663.88
2023-01-03T22:57:36.924Z,97637.69
2023-01-03T23:00:04.899Z,97640.44
2023-01-03T23:02:37.242Z,97642.41
2023-01-03T23:05:07.917Z,97655.28
2023-01-03T23:07:34.523Z,97678.06
2023-01-03T23:10:01.136Z,97776.69
2023-01-03T23:12:46.474Z,97840.59
2023-01-03T23:15:13.029Z,97837.97
2023-01-03T23:17:57.564Z,97832.25
2023-01-03T23:20:27.017Z,97757.06
2023-01-03T23:22:59.358Z,97757.31
2023-01-03T23:25:26.593Z,97797.97
2023-01-03T23:27:53.100Z,97785.16
2023-01-03T23:30:19.745Z,97788.78
2023-01-03T23:32:46.986Z,97823.78
2023-01-03T23:35:13.524Z,97881.09
2023-01-03T23:37:40.328Z,97927.34
2023-01-03T23:40:07.287Z,97916.16
2023-01-03T23:42:33.815Z,97856.84
2023-01-03T23:45:01.272Z,97846.13
2023-01-03T23:47:27.703Z,97830.69
2023-01-03T23:49:54.271Z,97802.06
2023-01-03T23:52:20.840Z,97773.44
2023-01-03T23:54:47.468Z,97738.84
2023-01-03T23:57:13.941Z,97831.97
2023-01-03T23:59:41.138Z,97926.34
